sensor_id;sensor_type;location;lat;lon;timestamp;P1;durP1;ratioP1;P2;durP2;ratioP2
2053;SDS011;1032;52.542;13.440;2023-01-23T00:02:06;24.23;;;18.15;;
2053;SDS011;1032;52.542;13.440;2023-01-23T00:04:33;24.70;;;18.65;;
2053;SDS011;1032;52.542;13.440;2023-01-23T00:07:00;25.42;;;18.15;;
2053;SDS011;1032;52.542;13.440;2023-01-23T00:09:27;24.13;;;17.00;;
2053;SDS011;1032;52.542;13.440;2023-01-23T00:11:54;22.95;;;18.05;;
2053;SDS011;1032;52.542;13.440;2023-01-23T00:14:20;26.48;;;16.85;;
2053;SDS011;1032;52.542;13.440;2023-01-23T00:16:47;27.73;;;19.17;;
2053;SDS011;1032;52.542;13.440;2023-01-23T00:19:15;28.35;;;18.75;;
2053;SDS011;1032;52.542;13.440;2023-01-23T00:21:41;25.33;;;17.05;;
2053;SDS011;1032;52.542;13.440;2023-01-23T00:24:09;24.70;;;18.13;;
2053;SDS011;1032;52.542;13.440;2023-01-23T00:26:37;21.70;;;15.95;;
2053;SDS011;1032;52.542;13.440;2023-01-23T00:29:03;25.50;;;17.40;;
2053;SDS011;1032;52.542;13.440;2023-01-23T00:31:31;25.40;;;17.25;;
2053;SDS011;1032;52.542;13.440;2023-01-23T00:34:00;27.73;;;18.58;;
2053;SDS011;1032;52.542;13.440;2023-01-23T00:36:30;24.13;;;17.23;;
2053;SDS011;1032;52.542;13.440;2023-01-23T00:38:58;24.27;;;18.15;;
2053;SDS011;1032;52.542;13.440;2023-01-23T00:41:25;25.77;;;17.98;;
2053;SDS011;1032;52.542;13.440;2023-01-23T00:43:52;25.52;;;17.50;;
2053;SDS011;1032;52.542;13.440;2023-01-23T00:46:19;24.13;;;17.73;;
2053;SDS011;1032;52.542;13.440;2023-01-23T00:48:46;23.17;;;17.08;;
2053;SDS011;1032;52.542;13.440;2023-01-23T00:51:13;25.08;;;16.58;;
2053;SDS011;1032;52.542;13.440;2023-01-23T00:53:41;25.95;;;17.67;;
2053;SDS011;1032;52.542;13.440;2023-01-23T00:56:08;23.83;;;17.73;;
2053;SDS011;1032;52.542;13.440;2023-01-23T00:58:35;24.13;;;16.27;;
2053;SDS011;1032;52.542;13.440;2023-01-23T01:01:02;28.33;;;18.92;;
2053;SDS011;1032;52.542;13.440;2023-01-23T01:03:29;25.30;;;17.27;;
2053;SDS011;1032;52.542;13.440;2023-01-23T01:05:55;27.27;;;17.80;;
2053;SDS011;1032;52.542;13.440;2023-01-23T01:08:22;24.35;;;17.55;;
2053;SDS011;1032;52.542;13.440;2023-01-23T01:10:50;27.25;;;18.83;;
2053;SDS011;1032;52.542;13.440;2023-01-23T01:13:17;29.10;;;19.17;;
2053;SDS011;1032;52.542;13.440;2023-01-23T01:15:45;27.27;;;19.13;;
2053;SDS011;1032;52.542;13.440;2023-01-23T01:18:12;27.13;;;17.73;;
2053;SDS011;1032;52.542;13.440;2023-01-23T01:20:39;27.50;;;18.98;;
2053;SDS011;1032;52.542;13.440;2023-01-23T01:23:07;29.10;;;19.52;;
2053;SDS011;1032;52.542;13.440;2023-01-23T01:25:33;26.90;;;18.55;;
2053;SDS011;1032;52.542;13.440;2023-01-23T01:28:02;24.45;;;17.02;;
2053;SDS011;1032;52.542;13.440;2023-01-23T01:30:29;27.83;;;18.75;;
2053;SDS011;1032;52.542;13.440;2023-01-23T01:32:55;26.92;;;18.70;;
2053;SDS011;1032;52.542;13.440;2023-01-23T01:35:22;26.75;;;18.35;;
2053;SDS011;1032;52.542;13.440;2023-01-23T01:37:49;25.20;;;17.77;;
2053;SDS011;1032;52.542;13.440;2023-01-23T01:40:17;27.17;;;19.30;;
2053;SDS011;1032;52.542;13.440;2023-01-23T01:42:46;26.17;;;18.08;;
2053;SDS011;1032;52.542;13.440;2023-01-23T01:48:20;29.38;;;18.00;;
2053;SDS011;1032;52.542;13.440;2023-01-23T01:50:50;26.05;;;17.75;;
2053;SDS011;1032;52.542;13.440;2023-01-23T01:53:17;28.98;;;19.30;;
2053;SDS011;1032;52.542;13.440;2023-01-23T01:55:45;30.83;;;18.98;;
2053;SDS011;1032;52.542;13.440;2023-01-23T01:58:12;28.52;;;18.00;;
2053;SDS011;1032;52.542;13.440;2023-01-23T02:00:39;26.60;;;18.40;;
2053;SDS011;1032;52.542;13.440;2023-01-23T02:03:06;28.13;;;19.00;;
2053;SDS011;1032;52.542;13.440;2023-01-23T02:05:34;25.90;;;19.17;;
2053;SDS011;1032;52.542;13.440;2023-01-23T02:08:04;30.45;;;18.40;;
2053;SDS011;1032;52.542;13.440;2023-01-23T02:10:36;28.88;;;20.92;;
2053;SDS011;1032;52.542;13.440;2023-01-23T02:13:17;29.52;;;20.10;;
2053;SDS011;1032;52.542;13.440;2023-01-23T02:15:45;30.67;;;17.77;;
2053;SDS011;1032;52.542;13.440;2023-01-23T02:18:12;27.73;;;18.50;;
2053;SDS011;1032;52.542;13.440;2023-01-23T02:20:40;25.65;;;18.55;;
2053;SDS011;1032;52.542;13.440;2023-01-23T02:23:09;28.35;;;20.02;;
2053;SDS011;1032;52.542;13.440;2023-01-23T02:25:47;28.02;;;18.52;;
2053;SDS011;1032;52.542;13.440;2023-01-23T02:28:18;27.27;;;18.55;;
2053;SDS011;1032;52.542;13.440;2023-01-23T02:30:45;27.00;;;18.02;;
2053;SDS011;1032;52.542;13.440;2023-01-23T02:36:22;27.60;;;18.65;;
2053;SDS011;1032;52.542;13.440;2023-01-23T02:38:52;32.72;;;18.35;;
2053;SDS011;1032;52.542;13.440;2023-01-23T02:41:26;25.10;;;18.30;;
2053;SDS011;1032;52.542;13.440;2023-01-23T02:43:55;22.77;;;16.92;;
2053;SDS011;1032;52.542;13.440;2023-01-23T02:46:24;28.90;;;19.90;;
2053;SDS011;1032;52.542;13.440;2023-01-23T02:48:51;27.30;;;17.95;;
2053;SDS011;1032;52.542;13.440;2023-01-23T02:51:18;24.38;;;18.33;;
2053;SDS011;1032;52.542;13.440;2023-01-23T02:53:46;26.15;;;18.40;;
2053;SDS011;1032;52.542;13.440;2023-01-23T02:56:13;28.30;;;18.75;;
2053;SDS011;1032;52.542;13.440;2023-01-23T02:58:42;26.83;;;18.35;;
2053;SDS011;1032;52.542;13.440;2023-01-23T03:01:27;27.75;;;17.98;;
2053;SDS011;1032;52.542;13.440;2023-01-23T03:03:55;26.00;;;18.38;;
2053;SDS011;1032;52.542;13.440;2023-01-23T03:06:28;26.35;;;18.92;;
2053;SDS011;1032;52.542;13.440;2023-01-23T03:09:01;27.30;;;19.38;;
2053;SDS011;1032;52.542;13.440;2023-01-23T03:11:29;25.35;;;17.42;;
2053;SDS011;1032;52.542;13.440;2023-01-23T03:14:00;26.33;;;18.17;;
2053;SDS011;1032;52.542;13.440;2023-01-23T03:16:27;27.80;;;19.92;;
2053;SDS011;1032;52.542;13.440;2023-01-23T03:18:54;24.23;;;17.55;;
2053;SDS011;1032;52.542;13.440;2023-01-23T03:21:23;26.20;;;17.90;;
2053;SDS011;1032;52.542;13.440;2023-01-23T03:23:50;25.50;;;16.60;;
2053;SDS011;1032;52.542;13.440;2023-01-23T03:26:17;28.50;;;18.13;;
2053;SDS011;1032;52.542;13.440;2023-01-23T03:32:33;28.42;;;19.67;;
2053;SDS011;1032;52.542;13.440;2023-01-23T03:35:02;25.90;;;17.80;;
2053;SDS011;1032;52.542;13.440;2023-01-23T03:37:28;26.15;;;18.67;;
2053;SDS011;1032;52.542;13.440;2023-01-23T03:39:56;27.38;;;18.95;;
2053;SDS011;1032;52.542;13.440;2023-01-23T03:42:40;27.85;;;19.38;;
2053;SDS011;1032;52.542;13.440;2023-01-23T03:45:10;27.33;;;18.98;;
2053;SDS011;1032;52.542;13.440;2023-01-23T03:47:38;26.85;;;18.88;;
2053;SDS011;1032;52.542;13.440;2023-01-23T03:50:05;25.50;;;17.13;;
2053;SDS011;1032;52.542;13.440;2023-01-23T03:52:35;26.17;;;18.20;;
2053;SDS011;1032;52.542;13.440;2023-01-23T03:55:03;28.15;;;20.15;;
2053;SDS011;1032;52.542;13.440;2023-01-23T03:57:30;24.05;;;19.13;;
2053;SDS011;1032;52.542;13.440;2023-01-23T04:00:04;27.15;;;18.65;;
2053;SDS011;1032;52.542;13.440;2023-01-23T04:02:48;26.98;;;19.10;;
2053;SDS011;1032;52.542;13.440;2023-01-23T04:05:15;27.10;;;19.10;;
2053;SDS011;1032;52.542;13.440;2023-01-23T04:07:42;27.20;;;19.75;;
2053;SDS011;1032;52.542;13.440;2023-01-23T04:10:09;25.50;;;18.80;;
2053;SDS011;1032;52.542;13.440;2023-01-23T04:12:36;26.83;;;19.60;;
2053;SDS011;1032;52.542;13.440;2023-01-23T04:15:04;30.10;;;19.90;;
2053;SDS011;1032;52.542;13.440;2023-01-23T04:17:31;25.42;;;17.85;;
2053;SDS011;1032;52.542;13.440;2023-01-23T04:19:59;27.67;;;18.15;;
2053;SDS011;1032;52.542;13.440;2023-01-23T04:22:26;30.20;;;20.05;;
2053;SDS011;1032;52.542;13.440;2023-01-23T04:24:53;27.90;;;19.70;;
2053;SDS011;1032;52.542;13.440;2023-01-23T04:27:20;29.63;;;19.92;;
2053;SDS011;1032;52.542;13.440;2023-01-23T04:29:49;29.27;;;20.40;;
2053;SDS011;1032;52.542;13.440;2023-01-23T04:32:16;25.77;;;20.08;;
2053;SDS011;1032;52.542;13.440;2023-01-23T04:34:45;27.67;;;19.30;;
2053;SDS011;1032;52.542;13.440;2023-01-23T04:37:14;29.08;;;19.60;;
2053;SDS011;1032;52.542;13.440;2023-01-23T04:39:41;26.10;;;19.60;;
2053;SDS011;1032;52.542;13.440;2023-01-23T04:42:08;27.73;;;18.85;;
2053;SDS011;1032;52.542;13.440;2023-01-23T04:44:46;28.55;;;19.55;;
2053;SDS011;1032;52.542;13.440;2023-01-23T04:47:35;28.83;;;20.15;;
2053;SDS011;1032;52.542;13.440;2023-01-23T04:50:07;33.75;;;21.27;;
2053;SDS011;1032;52.542;13.440;2023-01-23T04:52:35;27.80;;;19.42;;
2053;SDS011;1032;52.542;13.440;2023-01-23T04:55:02;32.45;;;20.05;;
2053;SDS011;1032;52.542;13.440;2023-01-23T04:57:30;29.02;;;21.73;;
2053;SDS011;1032;52.542;13.440;2023-01-23T05:00:07;29.88;;;22.15;;
2053;SDS011;1032;52.542;13.440;2023-01-23T05:02:36;29.58;;;20.80;;
2053;SDS011;1032;52.542;13.440;2023-01-23T05:05:03;29.38;;;21.27;;
2053;SDS011;1032;52.542;13.440;2023-01-23T05:07:30;31.20;;;20.63;;
2053;SDS011;1032;52.542;13.440;2023-01-23T05:10:08;30.13;;;21.13;;
2053;SDS011;1032;52.542;13.440;2023-01-23T05:12:35;30.50;;;20.52;;
2053;SDS011;1032;52.542;13.440;2023-01-23T05:15:03;29.05;;;20.10;;
2053;SDS011;1032;52.542;13.440;2023-01-23T05:17:35;32.05;;;21.80;;
2053;SDS011;1032;52.542;13.440;2023-01-23T05:20:02;26.08;;;19.92;;
2053;SDS011;1032;52.542;13.440;2023-01-23T05:22:29;26.15;;;19.33;;
2053;SDS011;1032;52.542;13.440;2023-01-23T05:24:57;28.38;;;20.20;;
2053;SDS011;1032;52.542;13.440;2023-01-23T05:27:27;34.15;;;20.38;;
2053;SDS011;1032;52.542;13.440;2023-01-23T05:29:54;30.63;;;20.75;;
2053;SDS011;1032;52.542;13.440;2023-01-23T05:32:23;28.67;;;19.35;;
2053;SDS011;1032;52.542;13.440;2023-01-23T05:35:14;31.35;;;21.30;;
2053;SDS011;1032;52.542;13.440;2023-01-23T05:37:42;32.38;;;20.92;;
2053;SDS011;1032;52.542;13.440;2023-01-23T05:40:09;28.58;;;20.73;;
2053;SDS011;1032;52.542;13.440;2023-01-23T05:43:05;29.00;;;19.90;;
2053;SDS011;1032;52.542;13.440;2023-01-23T05:45:51;29.52;;;22.02;;
2053;SDS011;1032;52.542;13.440;2023-01-23T05:48:38;35.75;;;20.45;;
2053;SDS011;1032;52.542;13.440;2023-01-23T05:51:08;31.15;;;20.13;;
2053;SDS011;1032;52.542;13.440;2023-01-23T05:53:35;29.70;;;19.67;;
2053;SDS011;1032;52.542;13.440;2023-01-23T05:56:04;29.25;;;20.55;;
2053;SDS011;1032;52.542;13.440;2023-01-23T05:58:36;31.55;;;20.88;;
2053;SDS011;1032;52.542;13.440;2023-01-23T06:01:25;29.02;;;19.73;;
2053;SDS011;1032;52.542;13.440;2023-01-23T06:04:15;31.95;;;20.20;;
2053;SDS011;1032;52.542;13.440;2023-01-23T06:06:52;29.83;;;19.00;;
2053;SDS011;1032;52.542;13.440;2023-01-23T06:09:18;27.15;;;19.83;;
2053;SDS011;1032;52.542;13.440;2023-01-23T06:11:46;27.65;;;19.90;;
2053;SDS011;1032;52.542;13.440;2023-01-23T06:14:14;27.83;;;19.90;;
2053;SDS011;1032;52.542;13.440;2023-01-23T06:16:41;29.20;;;20.13;;
2053;SDS011;1032;52.542;13.440;2023-01-23T06:19:08;31.27;;;21.17;;
2053;SDS011;1032;52.542;13.440;2023-01-23T06:21:35;27.58;;;19.17;;
2053;SDS011;1032;52.542;13.440;2023-01-23T06:24:02;32.33;;;21.73;;
2053;SDS011;1032;52.542;13.440;2023-01-23T06:26:29;27.70;;;19.55;;
2053;SDS011;1032;52.542;13.440;2023-01-23T06:28:55;24.88;;;19.00;;
2053;SDS011;1032;52.542;13.440;2023-01-23T06:31:23;30.10;;;19.60;;
2053;SDS011;1032;52.542;13.440;2023-01-23T06:33:55;28.65;;;20.02;;
2053;SDS011;1032;52.542;13.440;2023-01-23T06:36:27;29.52;;;21.35;;
2053;SDS011;1032;52.542;13.440;2023-01-23T06:38:54;27.98;;;19.63;;
2053;SDS011;1032;52.542;13.440;2023-01-23T06:41:26;28.70;;;20.65;;
2053;SDS011;1032;52.542;13.440;2023-01-23T06:43:53;29.63;;;20.52;;
2053;SDS011;1032;52.542;13.440;2023-01-23T06:46:24;29.25;;;20.20;;
2053;SDS011;1032;52.542;13.440;2023-01-23T06:48:52;27.52;;;19.55;;
2053;SDS011;1032;52.542;13.440;2023-01-23T06:51:19;29.73;;;21.23;;
2053;SDS011;1032;52.542;13.440;2023-01-23T06:53:46;27.70;;;19.60;;
2053;SDS011;1032;52.542;13.440;2023-01-23T06:56:14;28.77;;;20.30;;
2053;SDS011;1032;52.542;13.440;2023-01-23T06:58:42;28.83;;;21.45;;
2053;SDS011;1032;52.542;13.440;2023-01-23T07:01:18;27.63;;;19.70;;
2053;SDS011;1032;52.542;13.440;2023-01-23T07:04:05;32.17;;;20.90;;
2053;SDS011;1032;52.542;13.440;2023-01-23T07:06:33;33.38;;;22.73;;
2053;SDS011;1032;52.542;13.440;2023-01-23T07:08:59;32.00;;;21.25;;
2053;SDS011;1032;52.542;13.440;2023-01-23T07:11:27;30.60;;;21.90;;
2053;SDS011;1032;52.542;13.440;2023-01-23T07:13:55;32.10;;;21.73;;
2053;SDS011;1032;52.542;13.440;2023-01-23T07:16:23;31.10;;;22.20;;
2053;SDS011;1032;52.542;13.440;2023-01-23T07:18:50;29.00;;;20.92;;
2053;SDS011;1032;52.542;13.440;2023-01-23T07:21:19;30.50;;;20.77;;
2053;SDS011;1032;52.542;13.440;2023-01-23T07:23:46;30.90;;;19.92;;
2053;SDS011;1032;52.542;13.440;2023-01-23T07:26:12;29.65;;;21.15;;
2053;SDS011;1032;52.542;13.440;2023-01-23T07:28:39;27.92;;;20.77;;
2053;SDS011;1032;52.542;13.440;2023-01-23T07:31:06;31.88;;;21.23;;
2053;SDS011;1032;52.542;13.440;2023-01-23T07:33:32;34.00;;;22.13;;
2053;SDS011;1032;52.542;13.440;2023-01-23T07:35:59;34.67;;;22.02;;
2053;SDS011;1032;52.542;13.440;2023-01-23T07:38:27;27.35;;;20.92;;
2053;SDS011;1032;52.542;13.440;2023-01-23T07:40:56;30.77;;;22.77;;
2053;SDS011;1032;52.542;13.440;2023-01-23T07:43:24;30.40;;;22.40;;
2053;SDS011;1032;52.542;13.440;2023-01-23T07:45:50;35.65;;;23.00;;
2053;SDS011;1032;52.542;13.440;2023-01-23T07:48:17;31.27;;;19.98;;
2053;SDS011;1032;52.542;13.440;2023-01-23T07:50:44;33.15;;;22.10;;
2053;SDS011;1032;52.542;13.440;2023-01-23T07:53:11;32.85;;;21.70;;
2053;SDS011;1032;52.542;13.440;2023-01-23T07:55:38;29.85;;;22.83;;
2053;SDS011;1032;52.542;13.440;2023-01-23T07:58:05;31.85;;;23.10;;
2053;SDS011;1032;52.542;13.440;2023-01-23T08:00:32;33.40;;;22.75;;
2053;SDS011;1032;52.542;13.440;2023-01-23T08:02:58;30.08;;;22.08;;
2053;SDS011;1032;52.542;13.440;2023-01-23T08:05:25;33.10;;;21.35;;
2053;SDS011;1032;52.542;13.440;2023-01-23T08:07:52;28.65;;;19.90;;
2053;SDS011;1032;52.542;13.440;2023-01-23T08:10:18;33.00;;;23.10;;
2053;SDS011;1032;52.542;13.440;2023-01-23T08:12:46;28.67;;;21.52;;
2053;SDS011;1032;52.542;13.440;2023-01-23T08:15:13;33.30;;;21.88;;
2053;SDS011;1032;52.542;13.440;2023-01-23T08:17:40;33.25;;;22.73;;
2053;SDS011;1032;52.542;13.440;2023-01-23T08:20:07;26.83;;;19.48;;
2053;SDS011;1032;52.542;13.440;2023-01-23T08:22:35;30.13;;;21.65;;
2053;SDS011;1032;52.542;13.440;2023-01-23T08:25:05;31.55;;;21.48;;
2053;SDS011;1032;52.542;13.440;2023-01-23T08:27:32;26.98;;;19.83;;
2053;SDS011;1032;52.542;13.440;2023-01-23T08:30:00;28.63;;;21.08;;
2053;SDS011;1032;52.542;13.440;2023-01-23T08:32:27;27.67;;;20.60;;
2053;SDS011;1032;52.542;13.440;2023-01-23T08:34:53;32.08;;;20.85;;
2053;SDS011;1032;52.542;13.440;2023-01-23T08:37:20;30.90;;;20.63;;
2053;SDS011;1032;52.542;13.440;2023-01-23T08:39:47;29.85;;;20.75;;
2053;SDS011;1032;52.542;13.440;2023-01-23T08:42:13;28.40;;;20.52;;
2053;SDS011;1032;52.542;13.440;2023-01-23T08:44:40;26.38;;;20.98;;
2053;SDS011;1032;52.542;13.440;2023-01-23T08:47:08;35.60;;;22.73;;
2053;SDS011;1032;52.542;13.440;2023-01-23T08:49:34;29.73;;;21.45;;
2053;SDS011;1032;52.542;13.440;2023-01-23T08:52:02;31.67;;;22.00;;
2053;SDS011;1032;52.542;13.440;2023-01-23T08:54:30;28.95;;;22.05;;
2053;SDS011;1032;52.542;13.440;2023-01-23T08:56:56;27.05;;;19.10;;
2053;SDS011;1032;52.542;13.440;2023-01-23T08:59:23;31.05;;;24.67;;
2053;SDS011;1032;52.542;13.440;2023-01-23T09:01:50;38.85;;;23.60;;
2053;SDS011;1032;52.542;13.440;2023-01-23T09:04:18;31.70;;;24.92;;
2053;SDS011;1032;52.542;13.440;2023-01-23T09:06:45;29.40;;;23.23;;
2053;SDS011;1032;52.542;13.440;2023-01-23T09:09:11;26.38;;;21.05;;
2053;SDS011;1032;52.542;13.440;2023-01-23T09:11:38;37.67;;;23.20;;
2053;SDS011;1032;52.542;13.440;2023-01-23T09:14:05;31.80;;;23.20;;
2053;SDS011;1032;52.542;13.440;2023-01-23T09:16:31;31.30;;;21.10;;
2053;SDS011;1032;52.542;13.440;2023-01-23T09:18:58;28.13;;;19.85;;
2053;SDS011;1032;52.542;13.440;2023-01-23T09:21:26;30.80;;;21.55;;
2053;SDS011;1032;52.542;13.440;2023-01-23T09:23:52;30.20;;;24.55;;
2053;SDS011;1032;52.542;13.440;2023-01-23T09:26:19;29.38;;;21.83;;
2053;SDS011;1032;52.542;13.440;2023-01-23T09:28:45;30.40;;;22.08;;
2053;SDS011;1032;52.542;13.440;2023-01-23T09:31:12;37.40;;;23.30;;
2053;SDS011;1032;52.542;13.440;2023-01-23T09:33:39;27.98;;;21.55;;
2053;SDS011;1032;52.542;13.440;2023-01-23T09:36:06;31.88;;;26.00;;
2053;SDS011;1032;52.542;13.440;2023-01-23T09:38:35;32.63;;;26.33;;
2053;SDS011;1032;52.542;13.440;2023-01-23T09:41:07;28.52;;;25.17;;
2053;SDS011;1032;52.542;13.440;2023-01-23T09:43:38;30.42;;;23.02;;
2053;SDS011;1032;52.542;13.440;2023-01-23T09:46:14;30.50;;;23.27;;
2053;SDS011;1032;52.542;13.440;2023-01-23T09:48:45;25.95;;;20.98;;
2053;SDS011;1032;52.542;13.440;2023-01-23T09:51:16;28.67;;;22.13;;
2053;SDS011;1032;52.542;13.440;2023-01-23T09:53:49;26.15;;;19.67;;
2053;SDS011;1032;52.542;13.440;2023-01-23T09:56:27;30.15;;;21.88;;
2053;SDS011;1032;52.542;13.440;2023-01-23T09:58:57;27.95;;;21.88;;
2053;SDS011;1032;52.542;13.440;2023-01-23T10:01:28;28.65;;;23.73;;
2053;SDS011;1032;52.542;13.440;2023-01-23T10:03:56;28.30;;;21.52;;
2053;SDS011;1032;52.542;13.440;2023-01-23T10:06:25;31.00;;;27.00;;
2053;SDS011;1032;52.542;13.440;2023-01-23T10:09:05;32.10;;;26.10;;
2053;SDS011;1032;52.542;13.440;2023-01-23T10:11:48;30.42;;;25.60;;
2053;SDS011;1032;52.542;13.440;2023-01-23T10:14:28;28.85;;;21.70;;
2053;SDS011;1032;52.542;13.440;2023-01-23T10:17:11;31.58;;;24.77;;
2053;SDS011;1032;52.542;13.440;2023-01-23T10:19:48;30.23;;;25.63;;
2053;SDS011;1032;52.542;13.440;2023-01-23T10:22:31;29.90;;;23.42;;
2053;SDS011;1032;52.542;13.440;2023-01-23T10:25:06;33.67;;;23.90;;
2053;SDS011;1032;52.542;13.440;2023-01-23T10:27:37;33.33;;;21.27;;
2053;SDS011;1032;52.542;13.440;2023-01-23T10:30:13;26.77;;;20.50;;
2053;SDS011;1032;52.542;13.440;2023-01-23T10:32:47;27.65;;;20.88;;
2053;SDS011;1032;52.542;13.440;2023-01-23T10:35:16;28.95;;;22.45;;
2053;SDS011;1032;52.542;13.440;2023-01-23T10:37:48;30.60;;;21.13;;
2053;SDS011;1032;52.542;13.440;2023-01-23T10:40:22;30.17;;;20.98;;
2053;SDS011;1032;52.542;13.440;2023-01-23T10:43:08;33.17;;;23.50;;
2053;SDS011;1032;52.542;13.440;2023-01-23T10:45:37;27.95;;;21.08;;
2053;SDS011;1032;52.542;13.440;2023-01-23T10:48:05;28.30;;;21.73;;
2053;SDS011;1032;52.542;13.440;2023-01-23T10:50:52;25.90;;;21.45;;
2053;SDS011;1032;52.542;13.440;2023-01-23T10:53:19;31.02;;;24.75;;
2053;SDS011;1032;52.542;13.440;2023-01-23T10:55:48;29.73;;;22.17;;
2053;SDS011;1032;52.542;13.440;2023-01-23T10:58:22;29.25;;;22.67;;
2053;SDS011;1032;52.542;13.440;2023-01-23T11:00:54;27.17;;;20.65;;
2053;SDS011;1032;52.542;13.440;2023-01-23T11:03:25;25.15;;;20.92;;
2053;SDS011;1032;52.542;13.440;2023-01-23T11:05:54;27.48;;;21.75;;
2053;SDS011;1032;52.542;13.440;2023-01-23T11:08:23;28.25;;;20.83;;
2053;SDS011;1032;52.542;13.440;2023-01-23T11:10:53;28.80;;;20.92;;
2053;SDS011;1032;52.542;13.440;2023-01-23T11:13:41;29.42;;;24.10;;
2053;SDS011;1032;52.542;13.440;2023-01-23T11:16:11;31.40;;;24.88;;
2053;SDS011;1032;52.542;13.440;2023-01-23T11:18:40;30.48;;;22.77;;
2053;SDS011;1032;52.542;13.440;2023-01-23T11:21:18;26.65;;;21.20;;
2053;SDS011;1032;52.542;13.440;2023-01-23T11:23:45;29.75;;;21.40;;
2053;SDS011;1032;52.542;13.440;2023-01-23T11:28:58;32.28;;;19.80;;
2053;SDS011;1032;52.542;13.440;2023-01-23T11:31:25;25.15;;;20.48;;
2053;SDS011;1032;52.542;13.440;2023-01-23T11:33:56;25.80;;;20.30;;
2053;SDS011;1032;52.542;13.440;2023-01-23T11:36:30;27.02;;;20.35;;
2053;SDS011;1032;52.542;13.440;2023-01-23T11:39:08;29.83;;;23.88;;
2053;SDS011;1032;52.542;13.440;2023-01-23T11:41:41;31.45;;;21.73;;
2053;SDS011;1032;52.542;13.440;2023-01-23T11:44:14;27.30;;;21.95;;
2053;SDS011;1032;52.542;13.440;2023-01-23T11:46:50;27.90;;;20.48;;
2053;SDS011;1032;52.542;13.440;2023-01-23T11:49:30;26.85;;;21.13;;
2053;SDS011;1032;52.542;13.440;2023-01-23T11:52:16;25.27;;;20.25;;
2053;SDS011;1032;52.542;13.440;2023-01-23T11:54:57;27.30;;;20.90;;
2053;SDS011;1032;52.542;13.440;2023-01-23T11:57:41;22.20;;;18.60;;
2053;SDS011;1032;52.542;13.440;2023-01-23T12:00:23;25.30;;;19.77;;
2053;SDS011;1032;52.542;13.440;2023-01-23T12:05:58;28.48;;;21.52;;
2053;SDS011;1032;52.542;13.440;2023-01-23T12:08:38;23.25;;;18.40;;
2053;SDS011;1032;52.542;13.440;2023-01-23T12:11:11;22.67;;;17.10;;
2053;SDS011;1032;52.542;13.440;2023-01-23T12:13:54;30.88;;;19.55;;
2053;SDS011;1032;52.542;13.440;2023-01-23T12:16:27;23.38;;;17.98;;
2053;SDS011;1032;52.542;13.440;2023-01-23T12:19:07;23.05;;;19.30;;
2053;SDS011;1032;52.542;13.440;2023-01-23T12:21:42;22.40;;;18.02;;
2053;SDS011;1032;52.542;13.440;2023-01-23T12:24:16;23.05;;;17.95;;
2053;SDS011;1032;52.542;13.440;2023-01-23T12:26:55;22.13;;;17.58;;
2053;SDS011;1032;52.542;13.440;2023-01-23T12:29:38;20.77;;;15.75;;
2053;SDS011;1032;52.542;13.440;2023-01-23T12:32:32;23.30;;;19.55;;
2053;SDS011;1032;52.542;13.440;2023-01-23T12:35:15;24.38;;;17.48;;
2053;SDS011;1032;52.542;13.440;2023-01-23T12:38:06;25.02;;;15.88;;
2053;SDS011;1032;52.542;13.440;2023-01-23T12:40:39;22.23;;;15.80;;
2053;SDS011;1032;52.542;13.440;2023-01-23T12:43:10;19.25;;;15.02;;
2053;SDS011;1032;52.542;13.440;2023-01-23T12:45:42;19.90;;;17.27;;
2053;SDS011;1032;52.542;13.440;2023-01-23T12:48:16;18.73;;;15.80;;
2053;SDS011;1032;52.542;13.440;2023-01-23T12:50:47;19.63;;;14.75;;
2053;SDS011;1032;52.542;13.440;2023-01-23T12:53:17;23.17;;;15.77;;
2053;SDS011;1032;52.542;13.440;2023-01-23T12:55:51;20.60;;;14.95;;
2053;SDS011;1032;52.542;13.440;2023-01-23T12:58:22;17.90;;;15.20;;
2053;SDS011;1032;52.542;13.440;2023-01-23T13:00:54;19.30;;;14.30;;
2053;SDS011;1032;52.542;13.440;2023-01-23T13:03:37;22.08;;;15.88;;
2053;SDS011;1032;52.542;13.440;2023-01-23T13:06:23;18.10;;;14.85;;
2053;SDS011;1032;52.542;13.440;2023-01-23T13:09:00;26.15;;;16.00;;
2053;SDS011;1032;52.542;13.440;2023-01-23T13:11:35;22.63;;;17.15;;
2053;SDS011;1032;52.542;13.440;2023-01-23T13:14:16;21.17;;;18.17;;
2053;SDS011;1032;52.542;13.440;2023-01-23T13:16:47;20.40;;;16.50;;
2053;SDS011;1032;52.542;13.440;2023-01-23T13:19:23;19.60;;;15.80;;
2053;SDS011;1032;52.542;13.440;2023-01-23T13:22:13;19.30;;;14.20;;
2053;SDS011;1032;52.542;13.440;2023-01-23T13:24:48;16.92;;;13.32;;
2053;SDS011;1032;52.542;13.440;2023-01-23T13:27:39;18.77;;;14.95;;
2053;SDS011;1032;52.542;13.440;2023-01-23T13:33:19;20.30;;;14.43;;
2053;SDS011;1032;52.542;13.440;2023-01-23T13:36:20;19.65;;;15.00;;
2053;SDS011;1032;52.542;13.440;2023-01-23T13:38:58;18.73;;;14.73;;
2053;SDS011;1032;52.542;13.440;2023-01-23T13:41:40;20.00;;;16.35;;
2053;SDS011;1032;52.542;13.440;2023-01-23T13:44:15;22.30;;;16.58;;
2053;SDS011;1032;52.542;13.440;2023-01-23T13:46:49;19.65;;;15.82;;
2053;SDS011;1032;52.542;13.440;2023-01-23T13:49:28;18.85;;;14.77;;
2053;SDS011;1032;52.542;13.440;2023-01-23T13:52:20;19.67;;;13.85;;
2053;SDS011;1032;52.542;13.440;2023-01-23T13:55:13;20.90;;;15.82;;
2053;SDS011;1032;52.542;13.440;2023-01-23T13:58:00;19.50;;;16.20;;
2053;SDS011;1032;52.542;13.440;2023-01-23T14:00:27;17.30;;;14.63;;
2053;SDS011;1032;52.542;13.440;2023-01-23T14:02:56;17.25;;;13.05;;
2053;SDS011;1032;52.542;13.440;2023-01-23T14:06:04;17.10;;;15.30;;
2053;SDS011;1032;52.542;13.440;2023-01-23T14:08:32;21.80;;;12.98;;
2053;SDS011;1032;52.542;13.440;2023-01-23T14:10:59;15.63;;;12.27;;
2053;SDS011;1032;52.542;13.440;2023-01-23T14:13:27;18.00;;;12.05;;
2053;SDS011;1032;52.542;13.440;2023-01-23T14:15:54;19.25;;;14.48;;
2053;SDS011;1032;52.542;13.440;2023-01-23T14:18:36;24.30;;;13.90;;
2053;SDS011;1032;52.542;13.440;2023-01-23T14:21:15;20.77;;;13.38;;
2053;SDS011;1032;52.542;13.440;2023-01-23T14:23:47;17.10;;;11.90;;
2053;SDS011;1032;52.542;13.440;2023-01-23T14:26:15;16.25;;;13.38;;
2053;SDS011;1032;52.542;13.440;2023-01-23T14:28:49;17.15;;;13.02;;
2053;SDS011;1032;52.542;13.440;2023-01-23T14:31:21;16.10;;;12.77;;
2053;SDS011;1032;52.542;13.440;2023-01-23T14:33:59;15.73;;;11.80;;
2053;SDS011;1032;52.542;13.440;2023-01-23T14:36:29;17.67;;;13.48;;
2053;SDS011;1032;52.542;13.440;2023-01-23T14:38:58;18.55;;;13.40;;
2053;SDS011;1032;52.542;13.440;2023-01-23T14:41:26;15.90;;;12.60;;
2053;SDS011;1032;52.542;13.440;2023-01-23T14:43:57;16.30;;;12.18;;
2053;SDS011;1032;52.542;13.440;2023-01-23T14:46:30;17.05;;;13.10;;
2053;SDS011;1032;52.542;13.440;2023-01-23T14:49:00;16.77;;;12.02;;
2053;SDS011;1032;52.542;13.440;2023-01-23T14:51:29;16.50;;;12.95;;
2053;SDS011;1032;52.542;13.440;2023-01-23T14:53:57;19.02;;;14.63;;
2053;SDS011;1032;52.542;13.440;2023-01-23T14:56:26;15.35;;;11.57;;
2053;SDS011;1032;52.542;13.440;2023-01-23T14:58:56;17.60;;;12.75;;
2053;SDS011;1032;52.542;13.440;2023-01-23T15:01:25;17.92;;;13.43;;
2053;SDS011;1032;52.542;13.440;2023-01-23T15:03:56;17.55;;;12.93;;
2053;SDS011;1032;52.542;13.440;2023-01-23T15:06:24;17.45;;;12.15;;
2053;SDS011;1032;52.542;13.440;2023-01-23T15:08:54;16.40;;;12.77;;
2053;SDS011;1032;52.542;13.440;2023-01-23T15:11:30;18.90;;;13.13;;
2053;SDS011;1032;52.542;13.440;2023-01-23T15:13:57;17.85;;;13.88;;
2053;SDS011;1032;52.542;13.440;2023-01-23T15:16:27;17.73;;;13.90;;